Time;durP1;ratioP1;P1;durP2;ratioP2;P2;SDS_P1;SDS_P2;PMS_P1;PMS_P2;Temp;Humidity;BMP_temperature;BMP_pressure;BME280_temperature;BME280_humidity;BME280_pressure;Samples;Min_cycle;Max_cycle;Signal;HPM_P1;HPM_P2
2021/11/02 00:00:26;;;;;;;7.77;5.10;;;;;;;4.95;100.00;94890.47;5057875;28;20112;-75
2021/11/02 00:02:53;;;;;;;6.70;4.83;;;;;;;4.91;100.00;94894.38;5020351;28;20026;-75
2021/11/02 00:05:19;;;;;;;6.73;4.77;;;;;;;4.87;100.00;94895.69;5050543;28;20024;-75
2021/11/02 00:07:48;;;;;;;9.77;5.40;;;;;;;4.87;100.00;94894.88;5038367;28;20153;-75
2021/11/02 00:10:14;;;;;;;8.53;5.17;;;;;;;4.87;100.00;94903.50;5059682;28;20024;-75
2021/11/02 00:12:41;;;;;;;8.00;5.40;;;;;;;4.86;100.00;94907.06;5039782;28;20143;-79
2021/11/02 00:15:08;;;;;;;11.00;4.83;;;;;;;4.79;100.00;94898.22;5023018;28;20051;-75
2021/11/02 00:17:35;;;;;;;9.13;5.33;;;;;;;4.80;100.00;94902.47;5030947;28;20536;-75
2021/11/02 00:20:03;;;;;;;11.37;5.03;;;;;;;4.81;100.00;94891.09;5016088;28;20028;-74
2021/11/02 00:22:29;;;;;;;9.50;4.83;;;;;;;4.76;100.00;94893.31;5034827;28;20446;-75
2021/11/02 00:25:04;;;;;;;8.73;5.47;;;;;;;4.66;100.00;94896.09;5030588;28;20107;-75
2021/11/02 00:27:31;;;;;;;9.73;5.60;;;;;;;4.60;100.00;94891.50;5023065;28;20037;-75
2021/11/02 00:29:57;;;;;;;8.27;5.30;;;;;;;4.57;100.00;94891.00;5034008;28;20048;-75
2021/11/02 00:32:24;;;;;;;9.07;4.97;;;;;;;4.58;100.00;94893.41;5042068;28;20074;-74
2021/11/02 00:34:50;;;;;;;9.83;5.70;;;;;;;4.47;100.00;94894.50;5017725;28;20660;-74
2021/11/02 00:37:17;;;;;;;7.33;4.43;;;;;;;4.41;100.00;94889.91;5042571;28;20508;-74
2021/11/02 00:39:43;;;;;;;8.07;4.97;;;;;;;4.41;100.00;94887.31;5023198;28;20036;-76
2021/11/02 00:42:09;;;;;;;10.47;6.53;;;;;;;4.32;100.00;94885.63;5061391;28;20137;-73
2021/11/02 00:44:36;;;;;;;8.43;5.60;;;;;;;4.32;100.00;94885.63;5042022;28;20024;-74
2021/11/02 00:47:05;;;;;;;12.27;6.23;;;;;;;4.28;100.00;94886.91;5042447;28;20405;-75
2021/11/02 00:49:31;;;;;;;8.43;5.67;;;;;;;4.29;100.00;94885.94;5039857;28;20385;-75
2021/11/02 00:51:57;;;;;;;8.30;5.50;;;;;;;4.22;100.00;94883.13;5054043;28;20033;-75
2021/11/02 00:54:24;;;;;;;11.80;7.10;;;;;;;4.21;100.00;94886.72;5043008;28;20009;-75
2021/11/02 00:56:50;;;;;;;11.70;7.57;;;;;;;4.18;100.00;94886.19;5030748;28;20029;-75
2021/11/02 00:59:16;;;;;;;9.70;6.43;;;;;;;4.12;100.00;94884.22;5035994;28;20016;-75
2021/11/02 01:01:42;;;;;;;9.73;6.63;;;;;;;4.13;100.00;94883.25;5029463;28;20711;-75
2021/11/02 01:04:09;;;;;;;12.17;6.70;;;;;;;4.07;100.00;94883.88;5048590;28;20021;-75
2021/11/02 01:06:37;;;;;;;10.57;6.87;;;;;;;4.08;100.00;94882.88;5058117;28;20058;-75
2021/11/02 01:09:05;;;;;;;11.07;6.53;;;;;;;4.08;100.00;94880.28;5028363;28;20107;-75
2021/11/02 01:11:31;;;;;;;9.73;6.80;;;;;;;4.13;100.00;94884.06;5026818;28;20032;-74
2021/11/02 01:13:57;;;;;;;9.70;6.60;;;;;;;4.10;100.00;94883.56;5023778;28;20029;-75
2021/11/02 01:16:24;;;;;;;9.30;6.37;;;;;;;4.14;100.00;94869.28;5040078;28;20021;-75
2021/11/02 01:18:54;;;;;;;8.90;6.60;;;;;;;4.10;100.00;94873.16;5040461;28;20047;-76
2021/11/02 01:21:21;;;;;;;9.00;5.77;;;;;;;3.99;100.00;94872.44;5032547;28;20378;-75
2021/11/02 01:23:47;;;;;;;9.67;6.93;;;;;;;4.05;100.00;94875.38;5026444;28;20470;-76
2021/11/02 01:26:14;;;;;;;9.07;6.40;;;;;;;3.93;100.00;94869.63;5048574;28;20035;-75
2021/11/02 01:28:41;;;;;;;9.37;6.53;;;;;;;3.87;100.00;94872.81;5027883;28;20137;-75
2021/11/02 01:31:07;;;;;;;12.40;6.80;;;;;;;3.87;100.00;94875.44;5023236;28;20403;-75
2021/11/02 01:33:33;;;;;;;10.57;6.70;;;;;;;3.87;100.00;94871.03;5040482;28;20032;-74
2021/11/02 01:35:59;;;;;;;8.50;6.07;;;;;;;3.87;100.00;94865.84;5042795;28;20175;-75
2021/11/02 01:38:26;;;;;;;9.20;6.50;;;;;;;3.87;100.00;94867.63;5023200;28;20025;-76
2021/11/02 01:40:58;;;;;;;8.23;5.80;;;;;;;3.78;100.00;94861.53;5023583;28;20769;-74
2021/11/02 01:43:24;;;;;;;9.90;6.10;;;;;;;3.82;100.00;94875.06;5043155;28;20035;-75
2021/11/02 01:45:50;;;;;;;7.70;5.23;;;;;;;3.87;100.00;94863.25;5055200;28;20024;-75
2021/11/02 01:48:22;;;;;;;9.10;5.73;;;;;;;3.73;100.00;94864.59;5045797;28;20030;-75
2021/11/02 01:50:49;;;;;;;9.57;6.75;;;;;;;3.76;100.00;94872.09;5035655;28;20543;-74
2021/11/02 01:53:16;;;;;;;9.20;6.63;;;;;;;3.81;100.00;94869.03;5020726;28;20033;-75
2021/11/02 01:55:43;;;;;;;11.17;6.93;;;;;;;3.84;100.00;94863.53;5049305;28;20065;-75
2021/11/02 01:58:11;;;;;;;9.33;6.47;;;;;;;3.80;100.00;94862.22;5045872;28;20200;-75
2021/11/02 02:00:38;;;;;;;9.53;6.67;;;;;;;3.81;100.00;94863.84;5040065;28;20045;-75
2021/11/02 02:03:44;;;;;;;10.53;7.33;;;;;;;3.84;100.00;94868.75;5037378;28;20024;-75
2021/11/02 02:06:38;;;;;;;10.20;6.97;;;;;;;3.80;100.00;94870.00;5032019;28;20029;-74
2021/11/02 02:09:19;;;;;;;8.10;5.43;;;;;;;3.81;100.00;94865.63;5049012;28;20115;-75
2021/11/02 02:12:28;;;;;;;11.37;6.20;;;;;;;3.77;100.00;94857.31;5054286;28;20146;-74
2021/11/02 02:15:25;;;;;;;12.40;6.30;;;;;;;3.76;100.00;94856.50;5026389;28;20147;-75
2021/11/02 02:18:05;;;;;;;8.40;5.90;;;;;;;3.73;100.00;94856.81;5039836;28;20486;-75
2021/11/02 02:20:53;;;;;;;10.07;6.70;;;;;;;3.71;100.00;94857.91;5049843;28;20096;-75
2021/11/02 02:23:32;;;;;;;9.27;5.90;;;;;;;3.77;100.00;94859.91;5035504;28;20112;-73
2021/11/02 02:26:13;;;;;;;13.00;5.67;;;;;;;3.83;100.00;94851.50;5036999;28;20053;-75
2021/11/02 02:28:44;;;;;;;9.27;5.23;;;;;;;3.82;100.00;94842.06;5068169;28;20020;-75
2021/11/02 02:31:16;;;;;;;9.07;4.70;;;;;;;3.85;100.00;94843.53;5027097;28;20025;-75
2021/11/02 02:33:47;;;;;;;7.50;4.80;;;;;;;3.85;100.00;94849.56;5035779;28;20068;-75
2021/11/02 02:36:29;;;;;;;8.35;5.10;;;;;;;3.87;100.00;94849.44;5062748;28;20036;-75
2021/11/02 02:39:02;;;;;;;8.63;5.10;;;;;;;3.96;100.00;94849.31;5039303;28;20120;-75
2021/11/02 02:41:31;;;;;;;8.50;5.03;;;;;;;4.06;100.00;94837.97;5048822;28;20082;-74
2021/11/02 02:43:59;;;;;;;8.90;5.90;;;;;;;3.98;100.00;94836.97;5045496;28;20116;-74
2021/11/02 02:46:27;;;;;;;8.57;5.23;;;;;;;4.06;100.00;94835.38;5044626;28;20111;-75
2021/11/02 02:48:56;;;;;;;10.43;5.97;;;;;;;4.03;100.00;94833.13;5064986;28;20378;-74
2021/11/02 02:51:22;;;;;;;8.93;5.50;;;;;;;4.05;100.00;94839.78;5042618;28;20576;-75
2021/11/02 02:53:53;;;;;;;7.70;5.17;;;;;;;4.10;100.00;94840.16;5032226;28;20029;-76
2021/11/02 02:56:21;;;;;;;9.03;5.27;;;;;;;4.10;100.00;94839.34;5039420;28;20103;-75
2021/11/02 02:58:50;;;;;;;9.37;6.07;;;;;;;4.21;100.00;94829.47;5058640;28;20167;-75
2021/11/02 03:01:18;;;;;;;10.73;5.23;;;;;;;4.23;100.00;94831.94;5044719;28;20059;-75
2021/11/02 03:03:54;;;;;;;9.90;5.67;;;;;;;4.30;100.00;94832.94;5038119;28;20021;-75
2021/11/02 03:06:24;;;;;;;9.33;5.50;;;;;;;4.37;100.00;94823.53;5016745;28;20119;-75
2021/11/02 03:08:52;;;;;;;7.87;5.53;;;;;;;4.41;100.00;94830.06;5043859;28;20056;-74
2021/11/02 03:11:19;;;;;;;9.67;5.90;;;;;;;4.45;100.00;94830.56;5048022;28;20025;-76
2021/11/02 03:13:50;;;;;;;9.13;6.53;;;;;;;4.44;100.00;94834.94;5035264;28;20063;-76
2021/11/02 03:16:32;;;;;;;11.03;7.00;;;;;;;4.44;100.00;94840.16;5034885;28;20109;-77
2021/11/02 03:54:54;;;;;;;14.83;7.93;;;;;;;4.89;100.00;94852.03;5038891;28;20036;-75
2021/11/02 04:28:18;;;;;;;8.43;5.50;;;;;;;4.92;100.00;94853.50;5041094;28;20040;-76
2021/11/02 04:30:58;;;;;;;9.13;6.07;;;;;;;4.66;100.00;94851.81;5050432;28;20044;-76
2021/11/02 04:33:55;;;;;;;9.30;5.97;;;;;;;4.62;100.00;94850.47;5021882;28;20079;-75
2021/11/02 05:19:58;;;;;;;9.20;6.43;;;;;;;4.69;100.00;94853.25;5041967;28;20524;-76
2021/11/02 05:47:30;;;;;;;10.23;6.30;;;;;;;4.51;100.00;94849.94;5044581;28;20085;-75
2021/11/02 05:50:06;;;;;;;8.83;5.47;;;;;;;4.43;100.00;94853.34;5033034;28;20032;-75
2021/11/02 06:29:02;;;;;;;13.73;6.90;;;;;;;4.19;100.00;94854.00;5038689;28;20115;-76
2021/11/02 06:31:39;;;;;;;13.40;8.43;;;;;;;4.22;100.00;94857.09;5040595;28;20111;-76
2021/11/02 06:59:37;;;;;;;12.13;5.77;;;;;;;4.92;100.00;94859.53;5037284;28;20078;-75
2021/11/02 07:19:23;;;;;;;23.60;14.97;;;;;;;7.57;100.00;94870.00;5055005;28;20052;-74
2021/11/02 07:24:32;;;;;;;14.93;8.30;;;;;;;8.68;100.00;94863.31;5049110;28;20820;-75
2021/11/02 08:48:14;;;;;;;1.60;0.90;;;;;;;13.20;76.38;94849.78;5050771;28;20391;-74
2021/11/02 08:50:42;;;;;;;2.00;0.90;;;;;;;13.37;72.53;94848.31;5058788;28;20060;-75
2021/11/02 08:53:12;;;;;;;3.40;1.07;;;;;;;13.66;72.50;94841.66;5035461;28;20686;-74
2021/11/02 08:55:40;;;;;;;1.97;1.30;;;;;;;13.83;71.52;94847.25;5035572;28;20033;-75
2021/11/02 08:58:06;;;;;;;2.90;1.00;;;;;;;13.47;70.02;94839.94;5023435;28;20021;-74
2021/11/02 09:00:34;;;;;;;4.03;1.30;;;;;;;13.52;70.44;94836.69;5035951;28;20028;-73
2021/11/02 09:03:21;;;;;;;1.67;1.00;;;;;;;13.33;71.83;94839.19;5035153;28;20168;-75
2021/11/02 09:06:23;;;;;;;3.27;1.10;;;;;;;14.17;67.80;94837.25;5062131;28;20040;-74
2021/11/02 09:08:57;;;;;;;2.63;1.13;;;;;;;13.88;69.96;94836.84;4989332;28;20040;-74
2021/11/02 09:11:25;;;;;;;2.23;1.00;;;;;;;13.80;67.97;94833.66;5031697;28;20083;-73
2021/11/02 09:13:53;;;;;;;4.27;1.30;;;;;;;13.94;68.59;94831.72;5055967;28;20029;-74
2021/11/02 09:16:22;;;;;;;2.83;1.00;;;;;;;14.65;66.03;94826.06;5057874;28;20033;-74
2021/11/02 09:18:49;;;;;;;1.97;0.90;;;;;;;14.62;66.27;94834.47;5048409;28;20028;-74
2021/11/02 09:21:16;;;;;;;4.10;1.10;;;;;;;14.75;65.30;94825.56;5035690;28;20035;-75
2021/11/02 09:23:43;;;;;;;1.97;1.17;;;;;;;14.81;65.37;94836.06;5019375;28;20485;-75
2021/11/02 09:26:09;;;;;;;3.25;1.40;;;;;;;14.24;66.17;94839.84;5055602;28;20521;-74
2021/11/02 09:28:35;;;;;;;4.50;1.50;;;;;;;13.60;67.15;94833.78;5034966;28;20024;-75
2021/11/02 09:31:02;;;;;;;3.35;1.40;;;;;;;14.14;66.21;94829.75;5036409;28;20033;-73
2021/11/02 09:33:30;;;;;;;5.30;1.50;;;;;;;14.02;65.76;94832.28;5047166;28;20032;-74
2021/11/02 09:36:05;;;;;;;2.35;0.90;;;;;;;14.33;63.76;94833.25;5050398;28;20539;-75
2021/11/02 09:38:49;;;;;;;4.55;1.60;;;;;;;13.93;65.15;94830.13;5051298;28;20032;-75
2021/11/02 09:41:45;;;;;;;2.95;1.10;;;;;;;13.64;65.98;94829.69;5038169;28;20647;-74
2021/11/02 09:44:27;;;;;;;2.10;0.95;;;;;;;13.46;66.60;94826.94;5024892;28;20078;-74
2021/11/02 09:47:18;;;;;;;4.43;1.50;;;;;;;13.66;65.71;94822.38;5027715;28;20025;-74
2021/11/02 09:50:05;;;;;;;5.90;2.03;;;;;;;13.29;66.36;94826.63;5032854;28;20087;-74
2021/11/02 09:52:57;;;;;;;5.53;2.20;;;;;;;13.39;66.51;94827.78;5016771;28;20025;-74
2021/11/02 09:55:53;;;;;;;3.50;1.43;;;;;;;13.38;67.41;94820.91;5053301;28;20041;-74
2021/11/02 09:58:48;;;;;;;3.90;1.40;;;;;;;13.91;65.65;94827.66;5039731;28;20051;-74
2021/11/02 10:01:22;;;;;;;3.40;1.53;;;;;;;13.76;65.31;94833.28;5047644;28;20025;-74
2021/11/02 10:04:08;;;;;;;5.43;1.87;;;;;;;13.39;68.08;94821.72;5032939;28;20035;-74
2021/11/02 10:07:02;;;;;;;3.10;1.13;;;;;;;13.13;68.75;94817.31;5047551;28;20031;-74
2021/11/02 10:09:54;;;;;;;4.00;1.10;;;;;;;12.26;71.11;94819.34;5026676;28;20029;-74
2021/11/02 10:12:23;;;;;;;2.23;1.30;;;;;;;11.91;74.78;94822.22;5041943;28;20032;-74
2021/11/02 10:15:01;;;;;;;3.87;1.10;;;;;;;11.33;76.09;94824.50;5044824;28;20017;-73
2021/11/02 10:17:56;;;;;;;3.33;1.30;;;;;;;11.68;75.83;94821.75;5039161;28;20139;-74
2021/11/02 10:20:55;;;;;;;3.23;1.53;;;;;;;12.15;74.55;94812.06;5034923;28;20398;-74
2021/11/02 10:23:58;;;;;;;5.10;1.70;;;;;;;12.12;76.03;94820.38;5037688;28;20031;-74
2021/11/02 10:26:52;;;;;;;3.78;1.33;;;;;;;11.90;75.15;94817.94;5014191;28;20034;-74
2021/11/02 10:30:02;;;;;;;3.87;1.73;;;;;;;11.41;77.76;94821.69;5027474;28;20033;-74
2021/11/02 10:32:36;;;;;;;1.92;1.10;;;;;;;11.60;78.51;94819.28;4995104;28;20058;-74
2021/11/02 10:35:19;;;;;;;2.27;0.90;;;;;;;11.14;76.21;94820.00;5061538;28;20056;-73
2021/11/02 10:38:16;;;;;;;3.27;1.20;;;;;;;10.76;78.58;94830.94;5046017;28;20378;-73
2021/11/02 10:40:52;;;;;;;3.10;0.93;;;;;;;10.14;84.23;94832.56;5035758;28;20533;-73
2021/11/02 10:43:33;;;;;;;5.27;0.90;;;;;;;10.12;85.50;94830.09;5037452;28;20035;-73
2021/11/02 10:46:07;;;;;;;3.00;1.20;;;;;;;10.09;84.67;94829.69;5046884;28;20401;-73
2021/11/02 10:48:47;;;;;;;4.60;0.83;;;;;;;10.06;85.27;94827.44;5032646;28;20798;-73
2021/11/02 10:51:35;;;;;;;5.70;1.47;;;;;;;10.11;86.68;94830.31;5036699;28;20036;-73
2021/11/02 10:54:05;;;;;;;4.50;1.20;;;;;;;9.92;87.59;94834.41;5046362;28;20090;-74
2021/11/02 10:56:49;;;;;;;4.57;0.80;;;;;;;10.09;87.85;94829.69;5049724;28;20044;-73
2021/11/02 10:59:16;;;;;;;3.30;0.80;;;;;;;9.85;89.30;94839.59;5011178;28;20032;-74
2021/11/02 11:01:49;;;;;;;3.03;1.10;;;;;;;9.92;90.98;94834.41;5033655;28;20059;-74
2021/11/02 11:04:15;;;;;;;3.15;0.98;;;;;;;9.97;91.73;94836.47;5024397;28;20033;-74
2021/11/02 11:06:45;;;;;;;3.73;0.87;;;;;;;9.71;93.83;94839.66;5032221;28;20028;-74
2021/11/02 11:09:12;;;;;;;5.10;1.20;;;;;;;9.91;93.87;94836.22;5043428;28;20363;-74
2021/11/02 11:11:46;;;;;;;11.03;4.13;;;;;;;9.57;97.00;94836.91;5035844;28;20021;-75
2021/11/02 11:14:15;;;;;;;;;;;;;;;9.29;96.85;94838.63;5041077;28;20147;-74
2021/11/02 11:16:48;;;;;;;2.60;0.87;;;;;;;9.20;96.31;94836.13;5033662;28;19943;-74
2021/11/02 11:19:34;;;;;;;3.57;0.97;;;;;;;9.15;95.83;94846.38;5044897;28;20115;-73
2021/11/02 11:22:00;;;;;;;3.40;1.27;;;;;;;9.35;99.55;94848.38;5059147;28;20044;-74
2021/11/02 11:24:48;;;;;;;4.30;0.90;;;;;;;9.39;98.76;94841.78;5032178;28;20017;-74
2021/11/02 11:27:18;;;;;;;4.30;1.57;;;;;;;9.10;99.55;94843.47;5025902;28;20046;-75
2021/11/02 11:29:46;;;;;;;6.30;1.10;;;;;;;9.16;100.00;94845.38;5029172;28;20036;-74
2021/11/02 11:32:18;;;;;;;4.40;1.23;;;;;;;9.23;100.00;94834.97;5048475;28;20035;-74
2021/11/02 11:34:51;;;;;;;3.57;1.30;;;;;;;8.98;100.00;94834.44;5036687;28;20060;-74
2021/11/02 11:37:27;;;;;;;4.67;1.70;;;;;;;9.11;100.00;94839.03;5056520;28;20111;-76
2021/11/02 11:40:00;;;;;;;4.50;1.40;;;;;;;9.18;100.00;94826.81;5028215;28;20040;-76
2021/11/02 11:42:29;;;;;;;3.40;1.10;;;;;;;9.11;100.00;94826.75;5060071;28;20389;-74
2021/11/02 11:45:02;;;;;;;2.23;1.00;;;;;;;9.21;100.00;94831.69;5054904;28;20064;-74
2021/11/02 11:47:28;;;;;;;15.82;9.30;;;;;;;9.05;100.00;94832.72;5053609;28;20025;-74
2021/11/02 11:49:54;;;;;;;17.10;8.23;;;;;;;8.94;100.00;94830.56;5033509;28;20016;-74
2021/11/02 11:52:22;;;;;;;9.77;4.23;;;;;;;8.92;100.00;94827.31;5013434;28;20044;-74
2021/11/02 11:54:56;;;;;;;14.67;9.50;;;;;;;8.79;100.00;94828.00;5050218;28;20039;-74
2021/11/02 11:57:30;;;;;;;19.07;11.47;;;;;;;8.83;100.00;94833.69;5005586;28;20045;-74
2021/11/02 12:00:16;;;;;;;54.57;39.17;;;;;;;8.86;100.00;94830.69;5035908;28;20035;-73
2021/11/02 12:02:57;;;;;;;5.80;2.80;;;;;;;8.65;100.00;94824.38;5045177;28;20045;-73
2021/11/02 12:05:24;;;;;;;2.10;0.90;;;;;;;8.69;100.00;94820.41;5029025;28;20083;-73
2021/11/02 12:08:16;;;;;;;4.33;0.87;;;;;;;8.68;100.00;94821.38;5032963;28;20103;-74
2021/11/02 12:10:44;;;;;;;3.17;1.13;;;;;;;8.73;100.00;94829.53;5036841;28;20517;-73
2021/11/02 12:13:13;;;;;;;5.37;1.53;;;;;;;8.51;100.00;94825.19;5027617;28;20035;-73
2021/11/02 12:15:57;;;;;;;1.97;0.70;;;;;;;8.51;100.00;94825.19;5027525;28;20032;-74
2021/11/02 12:18:28;;;;;;;2.20;0.87;;;;;;;8.67;100.00;94825.00;5039094;28;20744;-73
2021/11/02 12:20:54;;;;;;;2.50;0.97;;;;;;;8.57;100.00;94819.22;5030178;28;20083;-73
2021/11/02 12:23:35;;;;;;;2.97;0.90;;;;;;;8.68;100.00;94810.91;5025724;28;20052;-78
2021/11/02 12:26:02;;;;;;;2.83;1.30;;;;;;;8.64;100.00;94819.31;5035477;28;20029;-76
2021/11/02 12:28:36;;;;;;;20.40;16.30;;;;;;;8.78;100.00;94809.81;5025825;28;20029;-73
2021/11/02 12:31:16;;;;;;;14.53;9.23;;;;;;;8.65;100.00;94811.28;5062322;28;20038;-73
2021/11/02 12:33:52;;;;;;;22.53;16.67;;;;;;;8.56;100.00;94812.38;5048444;28;20051;-74
2021/11/02 12:36:21;;;;;;;7.07;2.60;;;;;;;8.61;100.00;94811.81;5021663;28;20024;-75
2021/11/02 12:38:47;;;;;;;8.80;2.87;;;;;;;8.52;100.00;94812.91;5045752;28;20028;-73
2021/11/02 12:41:15;;;;;;;16.27;13.03;;;;;;;8.60;100.00;94810.19;5035682;28;20491;-74
2021/11/02 12:43:42;;;;;;;7.40;2.87;;;;;;;8.73;100.00;94818.22;5032377;28;20100;-73
2021/11/02 12:46:12;;;;;;;5.30;1.57;;;;;;;8.96;100.00;94812.88;5053714;28;20043;-73
2021/11/02 12:48:39;;;;;;;4.40;1.47;;;;;;;8.89;100.00;94809.34;5020795;28;20032;-73
2021/11/02 12:51:09;;;;;;;3.03;1.23;;;;;;;9.05;100.00;94811.72;5038532;28;20469;-73
2021/11/02 12:53:38;;;;;;;2.23;1.07;;;;;;;9.13;100.00;94806.41;5028496;28;20037;-73
2021/11/02 12:56:16;;;;;;;2.80;1.00;;;;;;;8.95;100.00;94811.22;5015597;28;20036;-75
2021/11/02 12:58:45;;;;;;;2.73;1.33;;;;;;;9.09;100.00;94815.63;5030948;28;20044;-73
2021/11/02 13:01:11;;;;;;;3.07;1.07;;;;;;;9.44;100.00;94805.28;5053238;28;20043;-73
2021/11/02 13:03:43;;;;;;;2.67;1.10;;;;;;;9.75;100.00;94804.16;5035263;28;20134;-73
2021/11/02 13:06:10;;;;;;;3.47;1.00;;;;;;;9.98;100.00;94804.75;5023834;28;20025;-73
2021/11/02 13:09:06;;;;;;;2.80;0.90;;;;;;;9.96;100.00;94808.56;5031250;28;20021;-73
2021/11/02 13:11:34;;;;;;;2.90;1.33;;;;;;;9.82;100.00;94805.03;5047853;28;20490;-73
2021/11/02 13:14:16;;;;;;;2.80;1.53;;;;;;;9.59;100.00;94802.59;5050056;28;20028;-73
2021/11/02 13:17:04;;;;;;;2.07;1.00;;;;;;;9.39;100.00;94810.31;5031958;28;20445;-74
2021/11/02 13:19:39;;;;;;;4.17;1.00;;;;;;;9.23;100.00;94808.72;5046514;28;20064;-73
2021/11/02 13:22:16;;;;;;;2.67;1.20;;;;;;;9.06;100.00;94810.75;5048693;28;20086;-73
2021/11/02 13:25:05;;;;;;;2.03;0.80;;;;;;;9.17;100.00;94806.84;5033600;28;20037;-73
2021/11/02 13:27:38;;;;;;;2.07;0.90;;;;;;;9.19;100.00;94803.03;5018813;28;20033;-73
2021/11/02 13:30:41;;;;;;;2.22;0.70;;;;;;;9.27;100.00;94807.34;5060570;28;20444;-74
2021/11/02 13:33:16;;;;;;;2.90;1.03;;;;;;;9.17;100.00;94802.41;5026876;28;20041;-73
2021/11/02 13:35:48;;;;;;;1.43;0.60;;;;;;;9.33;100.00;94808.44;5031671;28;20437;-74
2021/11/02 13:38:33;;;;;;;1.25;0.60;;;;;;;8.92;100.00;94799.31;5049561;28;20481;-74
2021/11/02 13:41:15;;;;;;;2.03;0.70;;;;;;;8.92;100.00;94808.97;5041233;28;20029;-74
2021/11/02 13:43:42;;;;;;;1.57;0.50;;;;;;;8.90;100.00;94808.34;5041415;28;20033;-73
2021/11/02 13:46:10;;;;;;;1.33;0.50;;;;;;;9.11;100.00;94808.38;5043358;28;20082;-73
2021/11/02 13:48:38;;;;;;;2.30;0.40;;;;;;;9.49;100.00;94810.81;5033028;28;20045;-74
2021/11/02 13:51:07;;;;;;;0.47;0.30;;;;;;;9.47;99.34;94809.38;5041090;28;20107;-73
2021/11/02 13:53:34;;;;;;;2.60;0.50;;;;;;;8.98;100.00;94811.66;5016579;28;20087;-74
2021/11/02 13:56:18;;;;;;;0.50;0.47;;;;;;;9.24;100.00;94809.53;5041865;28;20027;-74
2021/11/02 13:58:46;;;;;;;1.00;0.50;;;;;;;9.49;99.71;94809.97;5030968;28;20060;-74
2021/11/02 14:01:29;;;;;;;1.27;0.63;;;;;;;9.61;100.00;94806.66;5017772;28;20064;-74
2021/11/02 14:04:15;;;;;;;1.27;0.60;;;;;;;9.56;96.61;94816.94;5050929;28;20028;-74
2021/11/02 14:06:44;;;;;;;0.73;0.30;;;;;;;9.63;95.56;94807.31;5059010;28;20082;-75
2021/11/02 14:09:15;;;;;;;0.40;0.30;;;;;;;9.71;95.58;94816.03;5057604;28;20025;-74
2021/11/02 14:11:42;;;;;;;1.40;0.47;;;;;;;9.68;95.35;94815.41;5022477;28;20051;-74
2021/11/02 14:14:36;;;;;;;1.63;0.60;;;;;;;9.91;93.94;94819.66;5023095;28;20032;-73
2021/11/02 14:17:20;;;;;;;1.90;0.50;;;;;;;10.02;92.26;94824.38;5057225;28;20111;-76
2021/11/02 14:19:55;;;;;;;;;;;;;;;9.81;92.25;94819.16;5043693;28;20032;-75
2021/11/02 14:22:50;;;;;;;0.47;0.30;;;;;;;9.75;92.40;94828.59;5049262;28;19916;-75
2021/11/02 14:25:30;;;;;;;0.73;0.33;;;;;;;9.21;95.47;94821.19;5049909;28;20120;-76
2021/11/02 14:27:56;;;;;;;1.23;0.27;;;;;;;8.79;97.30;94827.19;5042842;28;20051;-74
2021/11/02 14:30:31;;;;;;;1.07;0.30;;;;;;;8.65;97.60;94834.03;5045981;28;20619;-75
2021/11/02 14:33:19;;;;;;;0.47;0.20;;;;;;;8.36;99.50;94834.81;5031385;28;20060;-75
2021/11/02 14:35:47;;;;;;;1.67;0.70;;;;;;;8.19;100.00;94842.03;5035849;28;20068;-75
2021/11/02 14:38:27;;;;;;;0.67;0.33;;;;;;;8.02;100.00;94838.75;5045101;28;20036;-75
2021/11/02 14:40:56;;;;;;;0.30;0.20;;;;;;;7.93;100.00;94837.19;5047798;28;20037;-75
2021/11/02 14:43:27;;;;;;;3.27;1.43;;;;;;;7.89;100.00;94835.94;5055490;28;20697;-75
2021/11/02 14:45:58;;;;;;;1.07;0.60;;;;;;;7.86;100.00;94841.50;5033271;28;20036;-74
2021/11/02 14:48:28;;;;;;;1.63;0.60;;;;;;;7.74;100.00;94843.72;5025878;28;20116;-74
2021/11/02 14:50:54;;;;;;;2.00;0.80;;;;;;;7.62;100.00;94845.94;5064640;28;20067;-74
2021/11/02 14:53:27;;;;;;;2.03;0.60;;;;;;;7.52;100.00;94854.03;5044261;28;20021;-75
2021/11/02 14:56:08;;;;;;;0.57;0.28;;;;;;;7.59;100.00;94855.97;5031661;28;20070;-75
2021/11/02 14:58:40;;;;;;;2.47;1.17;;;;;;;7.52;100.00;94846.19;5064247;28;20029;-75
2021/11/02 15:01:10;;;;;;;3.55;1.20;;;;;;;7.60;100.00;94847.91;5040727;28;20693;-73
2021/11/02 15:03:38;;;;;;;3.53;0.80;;;;;;;7.59;100.00;94854.16;5027466;28;20111;-74
2021/11/02 15:06:11;;;;;;;1.83;0.73;;;;;;;7.56;100.00;94857.91;5051522;28;20035;-74
2021/11/02 15:08:39;;;;;;;1.75;0.80;;;;;;;7.62;100.00;94851.19;5041353;28;20041;-74
2021/11/02 15:11:16;;;;;;;3.50;1.60;;;;;;;7.69;100.00;94857.34;5032816;28;20103;-76
2021/11/02 15:13:50;;;;;;;2.63;1.30;;;;;;;7.72;100.00;94853.56;5026756;28;20043;-75
2021/11/02 15:16:17;;;;;;;2.40;1.10;;;;;;;7.58;100.00;94852.53;5038215;28;20111;-74
2021/11/02 15:18:45;;;;;;;2.17;1.17;;;;;;;7.63;100.00;94852.00;5044722;28;20036;-75
2021/11/02 15:21:17;;;;;;;2.20;0.80;;;;;;;7.60;100.00;94847.09;5021530;28;20033;-74
2021/11/02 15:23:46;;;;;;;1.60;0.70;;;;;;;7.63;100.00;94846.75;5035944;28;20029;-75
2021/11/02 15:26:14;;;;;;;3.63;1.90;;;;;;;7.69;100.00;94857.34;5026572;28;20543;-75
2021/11/02 15:28:45;;;;;;;8.57;3.83;;;;;;;7.65;100.00;94855.25;5065030;28;20076;-74
2021/11/02 15:31:12;;;;;;;4.97;2.37;;;;;;;7.58;100.00;94860.38;5019006;28;20067;-75
2021/11/02 15:33:41;;;;;;;1.37;0.80;;;;;;;7.52;100.00;94864.50;5038160;28;20047;-75
2021/11/02 15:36:13;;;;;;;2.23;0.90;;;;;;;7.47;100.00;94861.56;5035358;28;20486;-75
2021/11/02 15:38:39;;;;;;;1.53;0.93;;;;;;;7.27;100.00;94866.44;5035053;28;20088;-74
2021/11/02 15:41:23;;;;;;;2.70;1.10;;;;;;;7.13;100.00;94863.75;5048857;28;20042;-74
2021/11/02 15:43:57;;;;;;;;;;;;;;;7.03;100.00;94864.75;5050264;28;20051;-73
2021/11/02 15:46:37;;;;;;;16.83;10.13;;;;;;;6.96;100.00;94873.47;5032887;28;20007;-73
2021/11/02 15:49:11;;;;;;;2.53;1.30;;;;;;;6.78;100.00;94881.56;5046439;28;20173;-76
2021/11/02 15:51:50;;;;;;;9.10;5.63;;;;;;;6.74;100.00;94870.63;5049979;28;20116;-74
2021/11/02 15:54:16;;;;;;;63.87;29.97;;;;;;;6.70;100.00;94877.16;5054248;28;20107;-75
2021/11/02 15:56:42;;;;;;;4.43;2.23;;;;;;;6.65;100.00;94876.84;5044878;28;20446;-74
2021/11/02 15:59:09;;;;;;;5.40;2.80;;;;;;;6.56;100.00;94878.66;5050201;28;20033;-74
2021/11/02 16:01:43;;;;;;;3.53;2.17;;;;;;;6.48;100.00;94883.91;5026326;28;20889;-74
2021/11/02 16:04:15;;;;;;;1.33;0.57;;;;;;;6.48;100.00;94890.94;5042631;28;20029;-75
2021/11/02 16:07:00;;;;;;;4.23;1.60;;;;;;;6.47;100.00;94882.31;5032626;28;20056;-75
2021/11/02 16:09:43;;;;;;;3.17;1.30;;;;;;;6.48;100.00;94888.34;5027182;28;20025;-73
2021/11/02 16:12:14;;;;;;;3.20;1.30;;;;;;;6.41;100.00;94885.56;5019771;28;20092;-75
2021/11/02 16:15:00;;;;;;;2.53;1.10;;;;;;;6.36;100.00;94883.44;5039699;28;20052;-73
2021/11/02 16:17:28;;;;;;;2.63;1.17;;;;;;;6.37;100.00;94886.88;5048638;28;20024;-73
2021/11/02 16:19:56;;;;;;;7.43;2.50;;;;;;;6.36;100.00;94900.91;5035484;28;20025;-73
2021/11/02 16:22:23;;;;;;;4.77;1.80;;;;;;;6.32;100.00;94889.16;5050934;28;20043;-73
2021/11/02 16:25:08;;;;;;;2.53;1.23;;;;;;;6.32;100.00;94897.81;4999332;28;20025;-74
2021/11/02 16:27:34;;;;;;;2.90;1.20;;;;;;;6.37;100.00;94898.16;5045138;28;20029;-73
2021/11/02 16:30:16;;;;;;;3.73;1.83;;;;;;;6.34;100.00;94900.28;5025067;28;20023;-76
2021/11/02 16:32:45;;;;;;;3.37;1.37;;;;;;;6.35;100.00;94900.09;5052791;28;20046;-75
2021/11/02 16:35:11;;;;;;;5.03;1.70;;;;;;;6.37;100.00;94895.53;5041920;28;20104;-75
2021/11/02 16:37:39;;;;;;;5.20;1.73;;;;;;;6.47;100.00;94899.75;5033868;28;20037;-75
2021/11/02 16:40:23;;;;;;;2.70;1.10;;;;;;;6.43;100.00;94893.22;5043565;28;20123;-75
2021/11/02 16:42:54;;;;;;;4.13;1.60;;;;;;;6.34;100.00;94898.47;5030374;28;20033;-74
2021/11/02 16:45:20;;;;;;;4.80;2.20;;;;;;;6.33;100.00;94909.88;5031502;28;20035;-73
2021/11/02 16:47:56;;;;;;;3.07;1.50;;;;;;;6.26;100.00;94916.75;5054728;28;20029;-74
2021/11/02 16:50:35;;;;;;;3.20;1.50;;;;;;;6.30;100.00;94914.63;5029175;28;20036;-77
2021/11/02 16:53:23;;;;;;;3.37;1.47;;;;;;;6.31;100.00;94924.91;5053740;28;20033;-75
2021/11/02 16:55:51;;;;;;;2.57;1.07;;;;;;;6.28;100.00;94930.47;5019583;28;20040;-73
2021/11/02 16:58:18;;;;;;;4.87;1.30;;;;;;;6.25;100.00;94930.78;5043262;28;20029;-73
2021/11/02 17:00:45;;;;;;;3.97;1.50;;;;;;;6.33;100.00;94933.38;5040047;28;20060;-73
2021/11/02 17:03:14;;;;;;;2.97;1.27;;;;;;;6.27;100.00;94926.22;5048222;28;20063;-73